Time;durP1;ratioP1;P1;durP2;ratioP2;P2;SDS_P1;SDS_P2;PMS_P1;PMS_P2;Temp;Humidity;BMP_temperature;BMP_pressure;BME280_temperature;BME280_humidity;BME280_pressure;Samples;Min_cycle;Max_cycle;Signal;HPM_P1;HPM_P2
2021/08/31 00:01:49;;;;;;;12.05;9.73;;;17.80;99.90;;;;;;4995943;28;20275;-85
2021/08/31 00:04:14;;;;;;;18.17;9.95;;;17.80;99.90;;;;;;4997146;28;20176;-85
2021/08/31 00:06:40;;;;;;;15.63;9.48;;;17.70;99.90;;;;;;4995897;28;20172;-86
2021/08/31 00:09:06;;;;;;;19.08;10.15;;;17.60;99.90;;;;;;4995729;28;20165;-86
2021/08/31 00:11:31;;;;;;;17.08;10.20;;;17.60;99.90;;;;;;4997237;28;20169;-86
2021/08/31 00:13:57;;;;;;;16.30;9.60;;;17.70;99.90;;;;;;4995576;28;20173;-84
2021/08/31 00:16:23;;;;;;;12.68;8.88;;;17.50;99.90;;;;;;4995628;28;20216;-85
2021/08/31 00:18:48;;;;;;;13.15;8.95;;;17.60;99.90;;;;;;4995722;28;20197;-86
2021/08/31 00:21:14;;;;;;;17.33;9.07;;;17.60;99.90;;;;;;4995837;28;20189;-86
2021/08/31 00:23:40;;;;;;;20.13;9.60;;;17.70;99.90;;;;;;4995636;28;20633;-86
2021/08/31 00:26:06;;;;;;;21.52;10.45;;;17.70;99.90;;;;;;4995551;28;20596;-86
2021/08/31 00:28:32;;;;;;;19.00;9.25;;;17.60;99.90;;;;;;4995264;28;20789;-86
2021/08/31 00:30:57;;;;;;;13.48;9.40;;;17.60;99.90;;;;;;4995457;28;20209;-85
2021/08/31 00:33:23;;;;;;;21.10;11.38;;;17.60;99.90;;;;;;4995192;28;20169;-84
2021/08/31 00:35:48;;;;;;;12.20;8.70;;;17.60;99.90;;;;;;4995048;28;20209;-85
2021/08/31 00:38:14;;;;;;;15.30;9.32;;;17.50;99.90;;;;;;4995113;28;20247;-84
2021/08/31 00:40:40;;;;;;;13.10;9.38;;;17.50;99.90;;;;;;4995365;28;20231;-86
2021/08/31 00:43:06;;;;;;;18.17;10.25;;;17.50;99.90;;;;;;4995297;28;20533;-85
2021/08/31 00:45:33;;;;;;;16.33;9.13;;;17.60;99.90;;;;;;4995440;28;20165;-85
2021/08/31 00:47:59;;;;;;;17.58;9.90;;;17.50;99.90;;;;;;4996303;28;20677;-85
2021/08/31 00:50:25;;;;;;;19.55;10.23;;;17.60;99.90;;;;;;4996182;28;20169;-85
2021/08/31 00:52:52;;;;;;;16.67;10.18;;;17.50;99.90;;;;;;4995211;28;20173;-85
2021/08/31 00:55:18;;;;;;;25.00;10.70;;;17.40;99.90;;;;;;4994746;28;20728;-85
2021/08/31 00:57:44;;;;;;;25.02;10.32;;;17.40;99.90;;;;;;4996027;28;20181;-85
2021/08/31 01:00:12;;;;;;;15.27;8.65;;;17.30;99.90;;;;;;4994908;28;20180;-86
2021/08/31 01:02:38;;;;;;;16.10;9.65;;;17.30;99.90;;;;;;4996047;28;20227;-85
2021/08/31 01:05:05;;;;;;;14.05;9.48;;;17.40;99.90;;;;;;4995073;28;20173;-84
2021/08/31 01:07:32;;;;;;;13.70;9.55;;;17.40;99.90;;;;;;4994880;28;20185;-84
2021/08/31 01:10:00;;;;;;;12.70;9.57;;;17.40;99.90;;;;;;4996219;28;20193;-86
2021/08/31 01:12:27;;;;;;;17.95;10.68;;;17.60;99.90;;;;;;4994727;28;20510;-85
2021/08/31 01:14:54;;;;;;;16.20;10.52;;;17.60;99.90;;;;;;4994581;28;20259;-84
2021/08/31 01:17:27;;;;;;;19.55;10.65;;;17.60;99.90;;;;;;4995997;28;20193;-85
2021/08/31 01:19:53;;;;;;;15.45;9.48;;;17.60;99.90;;;;;;4994857;28;20653;-84
2021/08/31 01:22:21;;;;;;;13.75;10.25;;;17.60;99.90;;;;;;4995620;28;20288;-85
2021/08/31 01:24:53;;;;;;;17.20;11.02;;;17.40;99.90;;;;;;4995976;28;20252;-85
2021/08/31 01:27:21;;;;;;;15.90;10.35;;;17.40;99.90;;;;;;4994287;28;20244;-85
2021/08/31 01:29:49;;;;;;;23.80;10.45;;;17.50;99.90;;;;;;4994841;28;20169;-85
2021/08/31 01:32:15;;;;;;;16.88;10.93;;;17.50;99.90;;;;;;4994360;28;20645;-85
2021/08/31 01:34:40;;;;;;;29.40;11.60;;;17.50;99.90;;;;;;4994410;28;20615;-85
2021/08/31 01:37:12;;;;;;;16.13;10.23;;;17.40;99.90;;;;;;4994101;28;20197;-85
2021/08/31 01:39:39;;;;;;;20.33;10.35;;;17.50;99.90;;;;;;4994409;28;20207;-84
2021/08/31 01:42:06;;;;;;;18.27;11.45;;;17.50;99.90;;;;;;4994255;28;20609;-85
2021/08/31 01:44:32;;;;;;;14.82;10.60;;;17.30;99.90;;;;;;4993854;28;20252;-86
2021/08/31 01:46:58;;;;;;;18.95;12.05;;;17.30;99.90;;;;;;4994157;28;20649;-85
2021/08/31 01:49:23;;;;;;;14.38;12.15;;;17.20;99.90;;;;;;4994165;28;20176;-85
2021/08/31 01:51:49;;;;;;;19.80;11.77;;;17.10;99.90;;;;;;4994148;28;20170;-85
2021/08/31 01:54:15;;;;;;;17.00;11.23;;;17.30;99.90;;;;;;4994657;28;20678;-84
2021/08/31 01:56:40;;;;;;;12.82;11.38;;;17.30;99.90;;;;;;4994891;28;20185;-85
2021/08/31 01:59:07;;;;;;;12.50;11.25;;;17.30;99.90;;;;;;4993914;28;20727;-85
2021/08/31 02:01:33;;;;;;;18.10;12.40;;;17.30;99.90;;;;;;4994947;28;20212;-85
2021/08/31 02:03:58;;;;;;;17.92;13.55;;;17.40;99.90;;;;;;4993734;28;20197;-84
2021/08/31 02:06:24;;;;;;;31.15;13.35;;;17.40;99.90;;;;;;4993876;28;20165;-84
2021/08/31 02:08:49;;;;;;;20.67;13.18;;;17.40;99.90;;;;;;4994724;28;20576;-85
2021/08/31 02:11:15;;;;;;;24.23;12.98;;;17.40;99.90;;;;;;4993552;28;20173;-85
2021/08/31 02:13:41;;;;;;;22.48;12.70;;;17.40;99.90;;;;;;4994948;28;20215;-85
2021/08/31 02:16:08;;;;;;;16.42;11.63;;;17.50;99.90;;;;;;4993435;28;20236;-85
2021/08/31 02:18:38;;;;;;;21.85;13.95;;;17.60;99.90;;;;;;4993157;28;20216;-85
2021/08/31 02:21:08;;;;;;;23.48;13.82;;;17.40;99.90;;;;;;4993217;28;20169;-85
2021/08/31 02:23:36;;;;;;;18.73;12.77;;;17.30;99.90;;;;;;4993497;28;20173;-86
2021/08/31 02:26:02;;;;;;;20.70;13.35;;;17.20;99.90;;;;;;4993854;28;20169;-86
2021/08/31 02:28:28;;;;;;;23.25;13.70;;;17.10;99.90;;;;;;4994330;28;20207;-84
2021/08/31 02:30:54;;;;;;;18.48;14.13;;;17.10;99.90;;;;;;4993746;28;20181;-86
2021/08/31 02:33:19;;;;;;;20.73;14.50;;;16.90;99.90;;;;;;4994476;28;20181;-86
2021/08/31 02:35:45;;;;;;;25.40;14.73;;;16.80;99.90;;;;;;4993294;28;20363;-86
2021/08/31 02:38:10;;;;;;;20.85;14.13;;;16.90;99.90;;;;;;4993248;28;20201;-85
2021/08/31 02:40:36;;;;;;;27.95;14.65;;;17.00;99.90;;;;;;4993001;28;20712;-85
2021/08/31 02:43:02;;;;;;;23.20;14.55;;;17.00;99.90;;;;;;4992937;28;20177;-86
2021/08/31 02:45:27;;;;;;;24.23;15.32;;;17.20;99.90;;;;;;4992954;28;20223;-85
2021/08/31 02:47:53;;;;;;;26.23;16.77;;;17.20;99.90;;;;;;4992766;28;20193;-86
2021/08/31 02:50:19;;;;;;;31.00;15.43;;;17.20;99.90;;;;;;4992833;28;20657;-85
2021/08/31 02:52:44;;;;;;;36.05;15.65;;;17.20;99.90;;;;;;4993092;28;20184;-85
2021/08/31 02:55:11;;;;;;;27.52;15.82;;;16.90;99.90;;;;;;4993048;28;20628;-85
2021/08/31 02:57:37;;;;;;;20.02;14.57;;;16.80;99.90;;;;;;4992997;28;20288;-86
2021/08/31 03:00:04;;;;;;;29.38;17.30;;;16.80;99.90;;;;;;4992824;28;20284;-85
2021/08/31 03:02:30;;;;;;;26.35;17.23;;;16.90;99.90;;;;;;4992714;28;20188;-85
2021/08/31 03:04:56;;;;;;;34.08;18.00;;;17.10;99.90;;;;;;4991825;28;20783;-85
2021/08/31 03:07:22;;;;;;;29.63;16.55;;;16.80;99.90;;;;;;4992845;28;20188;-85
2021/08/31 03:09:47;;;;;;;28.58;16.95;;;17.00;99.90;;;;;;4992944;28;20169;-85
2021/08/31 03:12:13;;;;;;;29.00;18.33;;;17.00;99.90;;;;;;4992443;28;20227;-86
2021/08/31 03:14:39;;;;;;;31.08;19.45;;;17.00;99.90;;;;;;4992616;28;20216;-85
2021/08/31 03:17:06;;;;;;;29.13;17.90;;;16.80;99.90;;;;;;4992447;28;20226;-85
2021/08/31 03:19:31;;;;;;;28.48;19.00;;;16.80;99.90;;;;;;4992528;28;20172;-85
2021/08/31 03:21:59;;;;;;;26.52;17.83;;;16.90;99.90;;;;;;4992851;28;20165;-84
2021/08/31 03:24:26;;;;;;;28.70;17.65;;;17.10;99.90;;;;;;4993863;28;20161;-84
2021/08/31 03:26:53;;;;;;;28.23;18.15;;;17.00;99.90;;;;;;4992636;28;20312;-87
2021/08/31 03:29:18;;;;;;;25.52;16.90;;;17.10;99.90;;;;;;4993858;28;20179;-85
2021/08/31 03:31:44;;;;;;;30.48;18.27;;;17.00;99.90;;;;;;4994038;28;20170;-86
2021/08/31 03:34:10;;;;;;;23.33;18.10;;;17.00;99.90;;;;;;4992711;28;20213;-87
2021/08/31 03:36:36;;;;;;;32.63;18.15;;;17.00;99.90;;;;;;4993782;28;20665;-86
2021/08/31 03:39:02;;;;;;;31.95;18.05;;;17.10;99.90;;;;;;4993798;28;20212;-86
2021/08/31 03:41:28;;;;;;;29.13;17.40;;;17.20;99.90;;;;;;4992856;28;20193;-86
2021/08/31 03:43:53;;;;;;;38.95;20.48;;;17.20;99.90;;;;;;4992619;28;20662;-86
2021/08/31 03:46:19;;;;;;;28.05;17.13;;;17.30;99.90;;;;;;4992538;28;20184;-86
2021/08/31 03:48:45;;;;;;;24.48;17.02;;;17.30;99.90;;;;;;4992754;28;20185;-85
2021/08/31 03:51:10;;;;;;;24.20;16.50;;;17.30;99.90;;;;;;4992425;28;20177;-85
2021/08/31 03:53:36;;;;;;;25.98;16.90;;;17.30;99.90;;;;;;4992369;28;20198;-85
2021/08/31 03:56:02;;;;;;;23.90;16.65;;;17.30;99.90;;;;;;4992242;28;20263;-86
2021/08/31 03:58:28;;;;;;;25.20;16.30;;;17.40;99.90;;;;;;4992267;28;20216;-86
2021/08/31 04:00:54;;;;;;;22.65;15.70;;;17.40;99.90;;;;;;4992334;28;20196;-85
2021/08/31 04:03:20;;;;;;;23.75;16.05;;;17.50;99.90;;;;;;4992604;28;20260;-85
2021/08/31 04:05:45;;;;;;;22.23;15.80;;;17.40;99.90;;;;;;4992522;28;20525;-85
2021/08/31 04:08:11;;;;;;;20.52;15.55;;;17.30;99.90;;;;;;4992232;28;20688;-85
2021/08/31 04:10:37;;;;;;;21.75;15.70;;;17.40;99.90;;;;;;4993765;28;20166;-84
2021/08/31 04:13:06;;;;;;;19.88;15.38;;;17.40;99.90;;;;;;4992606;28;20165;-84
2021/08/31 04:15:32;;;;;;;23.85;16.25;;;17.30;99.90;;;;;;4995972;28;20300;-84
2021/08/31 04:17:57;;;;;;;23.02;16.52;;;17.40;99.90;;;;;;4999019;28;20217;-85
2021/08/31 04:20:23;;;;;;;24.48;16.13;;;17.60;99.90;;;;;;4997005;28;20180;-84
2021/08/31 04:22:48;;;;;;;26.13;15.35;;;17.50;99.90;;;;;;4995497;28;20640;-85
2021/08/31 04:25:14;;;;;;;19.75;15.57;;;17.20;99.90;;;;;;4995728;28;20179;-85
2021/08/31 04:27:39;;;;;;;20.88;15.40;;;17.30;99.90;;;;;;4995683;28;20199;-84
2021/08/31 04:30:06;;;;;;;24.25;15.65;;;17.40;99.90;;;;;;4996302;28;20222;-84
2021/08/31 04:32:31;;;;;;;21.73;15.63;;;17.50;99.90;;;;;;4995709;28;20169;-85
2021/08/31 04:35:02;;;;;;;25.42;15.90;;;17.50;99.90;;;;;;4996292;28;20196;-85
2021/08/31 04:37:28;;;;;;;24.02;16.10;;;17.60;99.90;;;;;;4995372;28;20653;-85
2021/08/31 04:39:53;;;;;;;20.80;15.93;;;17.60;99.90;;;;;;4995327;28;20169;-85
2021/08/31 04:42:19;;;;;;;23.27;15.45;;;17.50;99.90;;;;;;4994972;28;20510;-84
2021/08/31 04:44:45;;;;;;;22.90;16.33;;;17.50;99.90;;;;;;4997115;28;20182;-86
2021/08/31 04:47:10;;;;;;;22.30;15.98;;;17.60;99.90;;;;;;4995122;28;20283;-85
2021/08/31 04:49:36;;;;;;;24.92;15.57;;;17.40;99.90;;;;;;4995268;28;20170;-85
2021/08/31 04:52:01;;;;;;;22.80;14.35;;;17.40;99.90;;;;;;4995262;28;20174;-85
2021/08/31 04:54:27;;;;;;;23.38;16.38;;;17.30;99.90;;;;;;4994984;28;20604;-85
2021/08/31 04:56:53;;;;;;;40.17;16.52;;;17.40;99.90;;;;;;4995195;28;20751;-85
2021/08/31 04:59:19;;;;;;;19.33;14.57;;;17.50;99.90;;;;;;4994926;28;20173;-85
2021/08/31 05:01:45;;;;;;;25.10;16.52;;;17.60;99.90;;;;;;5017989;23;20580;-79
2021/08/31 05:04:11;;;;;;;25.52;16.73;;;17.60;99.90;;;;;;5014753;28;20173;-81
2021/08/31 05:06:37;;;;;;;20.60;15.65;;;17.80;99.90;;;;;;5013525;28;20168;-81
2021/08/31 05:09:02;;;;;;;24.50;16.50;;;17.50;99.90;;;;;;5013735;28;20183;-81
2021/08/31 05:11:28;;;;;;;22.67;17.05;;;17.40;99.90;;;;;;5013998;28;20508;-81
2021/08/31 05:13:54;;;;;;;24.63;16.58;;;17.30;99.90;;;;;;5015326;28;20177;-80
2021/08/31 05:16:20;;;;;;;25.40;17.75;;;17.20;99.90;;;;;;5015193;28;20208;-81
2021/08/31 05:18:46;;;;;;;24.15;17.40;;;17.30;99.90;;;;;;5013946;28;20713;-81
2021/08/31 05:21:12;;;;;;;27.00;16.88;;;17.30;99.90;;;;;;5015127;28;20176;-81
2021/08/31 05:23:38;;;;;;;23.67;18.08;;;17.00;99.90;;;;;;5014022;28;20625;-81
2021/08/31 05:26:03;;;;;;;22.73;16.67;;;17.10;99.90;;;;;;5013918;28;20183;-81
2021/08/31 05:28:29;;;;;;;25.83;16.65;;;17.10;99.90;;;;;;5012375;28;20556;-81
2021/08/31 05:30:55;;;;;;;25.88;16.73;;;17.20;99.90;;;;;;5014878;28;20331;-81
2021/08/31 05:33:21;;;;;;;22.50;16.40;;;17.10;99.90;;;;;;5012744;28;20315;-81
2021/08/31 05:35:46;;;;;;;22.02;16.77;;;17.10;99.90;;;;;;5013150;28;20676;-82
2021/08/31 05:38:12;;;;;;;20.50;15.38;;;17.30;99.90;;;;;;5013499;28;20267;-81
2021/08/31 05:40:37;;;;;;;21.73;17.17;;;17.30;99.90;;;;;;5013231;28;20621;-81
2021/08/31 05:43:03;;;;;;;26.45;16.95;;;17.20;99.90;;;;;;5012193;28;20373;-81
2021/08/31 05:45:29;;;;;;;24.00;17.52;;;17.40;99.90;;;;;;5014343;28;20260;-81
2021/08/31 05:47:55;;;;;;;22.55;15.77;;;17.50;99.90;;;;;;5016720;28;20196;-82
2021/08/31 05:50:21;;;;;;;21.20;16.35;;;17.50;99.90;;;;;;5013354;28;20260;-81
2021/08/31 05:52:47;;;;;;;29.92;17.00;;;17.50;99.90;;;;;;5016650;28;20192;-82
2021/08/31 05:55:13;;;;;;;23.23;15.95;;;17.50;99.90;;;;;;5012972;28;20703;-81
2021/08/31 05:57:40;;;;;;;35.05;16.90;;;17.50;99.90;;;;;;5012935;28;20192;-81
2021/08/31 06:00:07;;;;;;;22.13;15.75;;;17.30;99.90;;;;;;5013973;28;20649;-81
2021/08/31 06:02:33;;;;;;;30.35;16.70;;;17.20;99.90;;;;;;5016117;28;20624;-81
2021/08/31 06:04:59;;;;;;;20.05;16.05;;;17.30;99.90;;;;;;5015375;28;20196;-81
2021/08/31 06:07:26;;;;;;;18.55;14.90;;;17.30;99.90;;;;;;5015098;28;20189;-81
2021/08/31 06:09:52;;;;;;;27.42;14.98;;;17.30;99.90;;;;;;5012937;28;20180;-81
2021/08/31 06:12:17;;;;;;;20.33;14.80;;;17.40;99.90;;;;;;5013133;28;20172;-81
2021/08/31 06:14:43;;;;;;;21.85;14.02;;;17.30;99.90;;;;;;5012892;28;20208;-82
2021/08/31 06:17:09;;;;;;;33.30;17.20;;;17.40;99.90;;;;;;5012469;28;20180;-81
2021/08/31 06:19:36;;;;;;;19.20;14.50;;;17.50;99.90;;;;;;5012080;28;20183;-81
2021/08/31 06:22:02;;;;;;;18.33;14.35;;;17.50;99.90;;;;;;5013430;28;20259;-82
2021/08/31 06:24:28;;;;;;;32.50;14.70;;;17.50;99.90;;;;;;5012420;28;20264;-82
2021/08/31 06:26:53;;;;;;;30.25;15.02;;;17.40;99.90;;;;;;4995149;28;20259;-77
2021/08/31 06:29:19;;;;;;;18.58;13.23;;;17.60;99.90;;;;;;4991593;28;20201;-76
2021/08/31 06:31:45;;;;;;;20.17;14.57;;;17.90;99.90;;;;;;4991858;28;20244;-76
2021/08/31 06:34:10;;;;;;;19.42;14.55;;;17.90;99.90;;;;;;4992129;28;20189;-80
2021/08/31 06:36:36;;;;;;;17.08;13.25;;;17.80;99.90;;;;;;5003636;28;20267;-79
2021/08/31 06:39:02;;;;;;;18.63;14.07;;;17.60;99.90;;;;;;5009726;28;20164;-80
2021/08/31 06:41:29;;;;;;;41.08;15.55;;;17.60;99.90;;;;;;5011882;28;20189;-78
2021/08/31 06:43:54;;;;;;;14.75;13.10;;;17.60;99.90;;;;;;5011312;28;20171;-80
2021/08/31 06:46:22;;;;;;;16.98;13.48;;;17.80;99.90;;;;;;5010373;28;20271;-78
2021/08/31 06:48:47;;;;;;;17.52;13.50;;;18.00;99.90;;;;;;5012576;28;20187;-79
2021/08/31 06:51:14;;;;;;;14.82;11.95;;;18.00;99.90;;;;;;5009863;28;20193;-78
2021/08/31 06:53:42;;;;;;;19.50;13.68;;;18.00;99.90;;;;;;5012553;28;20169;-79
2021/08/31 06:56:08;;;;;;;19.70;13.45;;;18.10;99.90;;;;;;5012022;28;20200;-82
2021/08/31 06:58:34;;;;;;;14.82;13.30;;;18.00;99.90;;;;;;5011422;28;20184;-77
2021/08/31 07:01:00;;;;;;;19.35;13.10;;;18.10;99.90;;;;;;5011426;28;20175;-82
2021/08/31 07:03:25;;;;;;;22.08;14.63;;;17.90;99.90;;;;;;5013519;28;20211;-78
2021/08/31 07:05:51;;;;;;;14.65;12.25;;;17.90;99.90;;;;;;5014700;28;20168;-79
2021/08/31 07:08:17;;;;;;;16.58;12.77;;;17.90;99.90;;;;;;5013774;28;20498;-79
2021/08/31 07:10:43;;;;;;;18.25;12.45;;;18.00;99.90;;;;;;5012961;28;20825;-81
2021/08/31 07:13:10;;;;;;;15.43;13.32;;;17.90;99.90;;;;;;5014493;28;20618;-78
2021/08/31 07:15:36;;;;;;;14.18;12.30;;;17.90;99.90;;;;;;5013644;28;20200;-79
2021/08/31 07:18:01;;;;;;;24.25;13.07;;;17.90;99.90;;;;;;5013538;28;20635;-86
2021/08/31 07:20:27;;;;;;;16.08;11.80;;;18.00;99.90;;;;;;5013083;28;20179;-78
2021/08/31 07:22:54;;;;;;;13.93;11.02;;;18.00;99.90;;;;;;5008834;28;20180;-76
2021/08/31 07:25:19;;;;;;;17.55;11.73;;;17.90;99.90;;;;;;5012007;28;20179;-77
2021/08/31 07:27:45;;;;;;;13.48;11.88;;;18.10;99.90;;;;;;5011864;28;20184;-79
2021/08/31 07:30:11;;;;;;;19.63;12.48;;;18.30;99.90;;;;;;5012683;28;20608;-77
2021/08/31 07:32:37;;;;;;;12.38;11.18;;;18.50;99.90;;;;;;5008674;28;20291;-79
2021/08/31 07:35:03;;;;;;;12.02;10.57;;;18.60;99.90;;;;;;5010991;28;20199;-77
2021/08/31 07:37:29;;;;;;;13.10;10.52;;;18.40;99.90;;;;;;5011657;28;20216;-77
2021/08/31 07:39:55;;;;;;;17.52;10.93;;;18.50;99.90;;;;;;5011232;28;20192;-77
2021/08/31 07:42:20;;;;;;;18.23;11.55;;;18.30;99.90;;;;;;5011129;28;20631;-77
2021/08/31 07:44:46;;;;;;;14.23;11.70;;;18.50;99.90;;;;;;5010801;28;20744;-81
2021/08/31 07:47:13;;;;;;;15.80;11.50;;;18.70;99.90;;;;;;5011443;28;20197;-79
2021/08/31 07:49:39;;;;;;;11.90;10.70;;;18.70;99.90;;;;;;5013079;28;20200;-83
2021/08/31 07:52:04;;;;;;;14.13;11.18;;;18.80;99.90;;;;;;5014001;28;20173;-85
2021/08/31 07:54:30;;;;;;;15.85;11.05;;;18.90;99.90;;;;;;5019225;28;20173;-87
2021/08/31 07:56:56;;;;;;;11.15;10.05;;;18.70;99.90;;;;;;5018968;28;20781;-84
2021/08/31 07:59:22;;;;;;;12.30;10.68;;;18.80;99.90;;;;;;5017106;28;20165;-83
2021/08/31 08:01:49;;;;;;;15.48;11.57;;;18.90;99.90;;;;;;5018935;28;20188;-83
2021/08/31 08:04:15;;;;;;;17.08;11.77;;;19.20;99.90;;;;;;5026515;28;20175;-82
2021/08/31 08:06:42;;;;;;;13.52;11.52;;;19.10;99.90;;;;;;5025587;28;20227;-82
2021/08/31 08:09:08;;;;;;;10.82;9.77;;;19.40;99.90;;;;;;5024959;28;20164;-83
2021/08/31 08:11:34;;;;;;;11.52;10.27;;;19.60;99.90;;;;;;5026556;28;20180;-84
2021/08/31 08:14:00;;;;;;;12.75;9.98;;;19.70;99.90;;;;;;5016830;28;20702;-84
2021/08/31 08:16:26;;;;;;;13.10;10.52;;;19.80;99.90;;;;;;5016059;28;20223;-83
2021/08/31 08:18:52;;;;;;;14.07;9.88;;;20.00;99.90;;;;;;5017176;28;20185;-84
2021/08/31 08:21:18;;;;;;;13.27;10.40;;;19.90;99.90;;;;;;5017259;28;20164;-84
2021/08/31 08:23:44;;;;;;;11.50;9.82;;;19.80;99.90;;;;;;5016419;28;20165;-83
2021/08/31 08:26:10;;;;;;;14.27;11.10;;;19.60;99.90;;;;;;5015714;28;20172;-83
2021/08/31 08:28:37;;;;;;;15.85;11.23;;;19.50;99.90;;;;;;5017167;28;20208;-82
2021/08/31 08:31:03;;;;;;;12.15;10.88;;;19.10;99.90;;;;;;5015672;28;20235;-83
2021/08/31 08:33:31;;;;;;;18.10;12.68;;;18.70;99.90;;;;;;5016009;28;20161;-84
2021/08/31 08:35:58;;;;;;;13.82;11.05;;;18.90;99.90;;;;;;5016626;28;20671;-83
2021/08/31 08:38:24;;;;;;;9.75;8.82;;;18.90;99.90;;;;;;5016731;28;20185;-83
2021/08/31 08:40:52;;;;;;;19.13;11.02;;;18.80;99.90;;;;;;5021484;28;20184;-83
2021/08/31 08:43:17;;;;;;;14.60;10.45;;;18.90;99.90;;;;;;5025470;28;20180;-82
2021/08/31 08:45:46;;;;;;;12.43;10.27;;;19.10;99.90;;;;;;5016717;28;20164;-83
2021/08/31 08:48:23;;;;;;;16.50;10.23;;;19.10;99.90;;;;;;5015195;28;20200;-83
2021/08/31 08:50:50;;;;;;;21.48;10.02;;;19.00;99.90;;;;;;5015263;28;20172;-83
2021/08/31 08:53:16;;;;;;;16.35;9.43;;;18.90;99.90;;;;;;5016800;28;20255;-83
2021/08/31 08:55:41;;;;;;;13.07;9.68;;;19.20;99.90;;;;;;5015486;28;20350;-84
2021/08/31 08:58:07;;;;;;;17.52;11.65;;;19.30;99.90;;;;;;5016467;28;20267;-83
2021/08/31 09:01:00;;;;;;;14.63;10.57;;;19.40;99.90;;;;;;5016609;28;20175;-84
2021/08/31 09:03:26;;;;;;;19.50;9.98;;;19.30;99.90;;;;;;5014920;28;20182;-84
2021/08/31 09:06:03;;;;;;;14.55;9.98;;;19.30;99.90;;;;;;5015304;28;20252;-81
2021/08/31 09:08:29;;;;;;;13.80;9.65;;;19.30;99.90;;;;;;5014451;28;20243;-85
2021/08/31 09:10:54;;;;;;;9.57;8.60;;;19.50;99.90;;;;;;5014352;28;20196;-81
2021/08/31 09:13:23;;;;;;;12.27;8.70;;;19.70;99.90;;;;;;5015094;28;20211;-82
2021/08/31 09:15:48;;;;;;;13.57;9.65;;;19.80;99.90;;;;;;5015449;28;20213;-85
2021/08/31 09:18:21;;;;;;;13.40;10.13;;;19.70;99.90;;;;;;5015231;28;20214;-85
2021/08/31 09:20:53;;;;;;;9.98;8.48;;;19.30;99.90;;;;;;5014525;28;20240;-86
2021/08/31 09:23:27;;;;;;;13.60;8.50;;;19.60;99.90;;;;;;5014333;28;20528;-83
2021/08/31 09:25:56;;;;;;;13.55;8.73;;;19.80;99.90;;;;;;5010591;28;20187;-82
2021/08/31 09:28:30;;;;;;;13.48;8.77;;;20.10;99.90;;;;;;5045663;28;20568;-82
2021/08/31 09:31:11;;;;;;;15.57;7.70;;;20.30;99.90;;;;;;5046628;28;20164;-85
2021/08/31 09:33:40;;;;;;;8.25;6.88;;;20.40;99.90;;;;;;5045855;28;20284;-83
2021/08/31 09:36:13;;;;;;;11.32;7.10;;;20.20;99.90;;;;;;5034410;28;20239;-83
2021/08/31 09:38:42;;;;;;;7.82;7.10;;;20.20;99.90;;;;;;5023715;28;20192;-80
2021/08/31 09:41:07;;;;;;;14.15;7.38;;;20.20;99.90;;;;;;5016923;28;20589;-82
2021/08/31 09:43:35;;;;;;;15.35;8.35;;;20.20;99.90;;;;;;5012719;28;20291;-81
2021/08/31 09:46:01;;;;;;;20.95;7.55;;;20.20;99.90;;;;;;5012179;28;20175;-82
2021/08/31 09:48:26;;;;;;;7.45;6.63;;;20.60;99.90;;;;;;5012264;28;20197;-82
2021/08/31 09:50:58;;;;;;;7.00;6.32;;;20.80;99.90;;;;;;5012585;28;20176;-82
2021/08/31 09:53:27;;;;;;;12.57;6.97;;;21.00;99.90;;;;;;5012446;28;20259;-84
2021/08/31 09:56:08;;;;;;;9.43;7.05;;;21.20;99.90;;;;;;5013325;28;20688;-83
2021/08/31 09:58:37;;;;;;;9.05;7.43;;;20.90;99.90;;;;;;5012199;28;20287;-83
2021/08/31 10:01:04;;;;;;;14.07;6.60;;;20.80;99.90;;;;;;5012488;28;20177;-83
2021/08/31 10:03:30;;;;;;;13.60;8.02;;;21.20;99.90;;;;;;5013315;28;20633;-83
2021/08/31 10:05:59;;;;;;;8.07;7.22;;;21.30;99.90;;;;;;5012068;28;20207;-82
2021/08/31 10:08:28;;;;;;;11.90;7.90;;;21.20;99.90;;;;;;5012111;28;20271;-82
2021/08/31 10:10:54;;;;;;;11.52;6.95;;;20.90;99.90;;;;;;5011441;28;20180;-81
2021/08/31 10:13:26;;;;;;;10.10;7.25;;;20.80;99.90;;;;;;4995610;28;20173;-83
2021/08/31 10:15:54;;;;;;;8.80;7.15;;;20.80;99.90;;;;;;4991044;28;20688;-81
2021/08/31 10:18:26;;;;;;;9.02;6.97;;;20.80;99.90;;;;;;5027792;28;20235;-84
2021/08/31 10:21:03;;;;;;;10.02;7.10;;;21.10;99.90;;;;;;5038278;28;20156;-85
2021/08/31 10:23:37;;;;;;;18.35;7.80;;;21.10;99.90;;;;;;5037012;28;20179;-85
2021/08/31 10:26:29;;;;;;;12.95;7.18;;;21.20;99.90;;;;;;5036110;28;20169;-83
2021/08/31 10:29:25;;;;;;;11.00;7.30;;;20.70;99.90;;;;;;5029085;28;20212;-86
2021/08/31 10:31:54;;;;;;;7.05;6.43;;;20.70;99.90;;;;;;4995612;28;20540;-87
2021/08/31 10:34:40;;;;;;;8.93;6.32;;;20.80;99.90;;;;;;4999612;28;20575;-86
2021/08/31 10:37:11;;;;;;;14.18;6.97;;;20.80;99.90;;;;;;5017342;28;20189;-87
2021/08/31 10:39:47;;;;;;;8.30;6.65;;;20.90;99.90;;;;;;5017463;28;20231;-82
2021/08/31 10:42:32;;;;;;;7.18;6.45;;;21.10;99.90;;;;;;5016135;28;20195;-86
2021/08/31 10:45:00;;;;;;;10.30;6.90;;;21.20;99.90;;;;;;5015494;28;20238;-86
2021/08/31 10:47:37;;;;;;;8.90;6.95;;;21.50;99.90;;;;;;5016727;28;20754;-86
2021/08/31 10:50:08;;;;;;;11.18;6.25;;;21.70;99.90;;;;;;5016720;28;20187;-86
2021/08/31 10:52:38;;;;;;;6.40;5.78;;;21.70;99.90;;;;;;5017177;28;20164;-84
2021/08/31 10:55:23;;;;;;;9.48;6.03;;;21.80;99.90;;;;;;5015439;28;20204;-86
2021/08/31 10:57:53;;;;;;;7.65;6.88;;;21.80;99.90;;;;;;5016439;28;20199;-87
2021/08/31 11:00:18;;;;;;;7.57;5.50;;;21.70;99.90;;;;;;4997795;28;20183;-87
2021/08/31 11:02:57;;;;;;;8.48;6.40;;;21.70;99.90;;;;;;5013438;28;20184;-87
2021/08/31 11:05:25;;;;;;;7.38;5.85;;;21.70;99.90;;;;;;5022955;22;20283;-87
2021/08/31 11:07:56;;;;;;;8.40;6.53;;;21.60;99.90;;;;;;4993545;28;20201;-87
2021/08/31 11:10:42;;;;;;;8.18;6.80;;;22.00;99.90;;;;;;4994281;28;20169;-87
2021/08/31 11:13:24;;;;;;;15.00;6.28;;;21.90;99.90;;;;;;4993908;28;20223;-87
2021/08/31 11:15:55;;;;;;;9.50;4.72;;;22.20;99.90;;;;;;4994559;28;20212;-88
2021/08/31 11:18:21;;;;;;;12.30;5.72;;;22.40;99.90;;;;;;5014493;28;20208;-88
2021/08/31 11:20:47;;;;;;;12.50;5.40;;;22.60;99.90;;;;;;5014118;28;20694;-89
2021/08/31 11:23:20;;;;;;;8.75;4.60;;;22.60;99.90;;;;;;5011743;28;20172;-87
2021/08/31 11:25:52;;;;;;;7.32;4.65;;;23.20;99.90;;;;;;5013189;28;20164;-87
2021/08/31 11:28:24;;;;;;;7.30;5.47;;;23.60;99.90;;;;;;5018300;28;20291;-86
2021/08/31 11:30:51;;;;;;;4.78;4.38;;;23.20;99.90;;;;;;5017882;28;20168;-87
2021/08/31 11:33:27;;;;;;;7.63;6.13;;;22.90;99.90;;;;;;5017369;28;20173;-87
2021/08/31 11:35:58;;;;;;;10.38;5.40;;;22.70;99.90;;;;;;5018475;28;20231;-89
2021/08/31 11:38:38;;;;;;;5.95;5.18;;;22.60;99.90;;;;;;5016653;28;20219;-86
2021/08/31 11:41:18;;;;;;;7.38;6.07;;;22.70;99.90;;;;;;5016683;28;20168;-85
2021/08/31 11:43:57;;;;;;;6.32;5.47;;;22.70;99.90;;;;;;5016387;28;20267;-85
2021/08/31 11:46:34;;;;;;;17.42;5.43;;;22.80;99.90;;;;;;5016568;28;20172;-86
2021/08/31 11:49:32;;;;;;;6.97;5.32;;;22.90;99.90;;;;;;5015603;28;20222;-84
2021/08/31 11:52:11;;;;;;;8.90;5.28;;;23.30;99.90;;;;;;4983158;28;20267;-86
2021/08/31 11:54:43;;;;;;;8.85;5.00;;;23.60;99.90;;;;;;5015442;28;20294;-84
2021/08/31 11:57:08;;;;;;;7.30;4.53;;;23.80;99.90;;;;;;5015639;28;20541;-87
2021/08/31 11:59:51;;;;;;;5.55;3.72;;;23.90;99.90;;;;;;5017295;28;20172;-87
2021/08/31 12:02:22;;;;;;;7.97;5.22;;;24.00;99.90;;;;;;5013790;28;20178;-81
2021/08/31 12:05:04;;;;;;;10.95;5.82;;;23.50;99.90;;;;;;5016034;28;20200;-80
2021/08/31 12:07:34;;;;;;;7.00;6.28;;;22.60;99.90;;;;;;5015598;28;20184;-81
2021/08/31 12:10:03;;;;;;;10.23;6.07;;;22.10;99.90;;;;;;5014429;28;20172;-83
2021/08/31 12:12:29;;;;;;;10.98;6.57;;;22.50;99.90;;;;;;5015357;28;20179;-80
2021/08/31 12:14:55;;;;;;;13.77;4.90;;;22.80;99.90;;;;;;5014350;28;20207;-82
2021/08/31 12:17:35;;;;;;;7.50;4.88;;;23.10;99.90;;;;;;5015143;28;20556;-82
2021/08/31 12:20:06;;;;;;;6.30;4.70;;;23.30;99.90;;;;;;5014401;28;20172;-82
2021/08/31 12:22:34;;;;;;;5.95;4.68;;;23.10;99.90;;;;;;5015669;28;20175;-82
2021/08/31 12:24:59;;;;;;;7.20;4.95;;;23.30;99.90;;;;;;5014500;28;20172;-82
2021/08/31 12:27:36;;;;;;;12.35;4.25;;;23.30;99.90;;;;;;5013939;28;20184;-82
2021/08/31 12:30:01;;;;;;;5.80;5.20;;;23.10;99.90;;;;;;5015728;28;20176;-82
2021/08/31 12:32:29;;;;;;;6.53;5.18;;;22.90;99.90;;;;;;5014171;28;20164;-82
2021/08/31 12:34:58;;;;;;;4.95;4.30;;;22.70;99.90;;;;;;5014188;28;20231;-82
2021/08/31 12:37:26;;;;;;;10.05;4.70;;;23.00;99.90;;;;;;5014871;28;20187;-83